Terminal Aerodrome Forecast
Issued by NWS

Home | Current Version | Previous Version | Text Only | Print | Product List | Glossary On
Versions: 1 2 3 4 5 6 7 8 9 10 11 12 13 14 15 16 17 18 19
704
FTUS41 KAKQ 031139
TAFPHF
TAF
KPHF 031139Z 0312/0412 22007KT P6SM -RA SCT009 BKN020 OVC040
      TEMPO 0312/0314 BKN008
     FM031700 24005KT P6SM SCT012 BKN035
     FM032000 24005KT P6SM VCSH OVC040
     FM040000 03004KT P6SM VCSH BKN050
     FM040400 04004KT 2SM BR OVC007=

USA.gov is the U.S. government's official web portal to all federal, state and local government web resources and services.